Terminal Aerodrome Forecast
Issued by NWS

Home | Current Version | Previous Version | Text Only | Print | Product List | Glossary On
Versions: 1 2 3 4 5 6 7 8 9 10 11 12 13 14 15 16 17 18 19 20 21 22 23 24
000
FTUS45 KGJT 242332
TAFMTJ
TAF
KMTJ 242332Z 2500/2524 32006KT P6SM SCT140 OVC200
     FM250200 14005KT P6SM BKN250
     FM251500 VRB03KT P6SM SCT250
     FM251800 33004KT P6SM SCT250=

USA.gov is the U.S. government's official web portal to all federal, state and local government web resources and services.